Time;durP1;ratioP1;P1;durP2;ratioP2;P2;SDS_P1;SDS_P2;PMS_P1;PMS_P2;Temp;Humidity;BMP_temperature;BMP_pressure;BME280_temperature;BME280_humidity;BME280_pressure;Samples;Min_cycle;Max_cycle;Signal;HPM_P1;HPM_P2
2023/11/14 00:01:50;;;;;;;6.62;1.42;;;;;;;12.44;64.50;99291.53;4427055;32;32880;-80
2023/11/14 00:04:18;;;;;;;3.15;1.75;;;;;;;12.20;64.67;99291.19;4426988;32;32995;-80
2023/11/14 00:06:46;;;;;;;3.92;1.90;;;;;;;11.94;66.22;99286.56;4425773;32;33600;-80
2023/11/14 00:09:14;;;;;;;1.15;0.93;;;;;;;11.70;66.98;99292.25;4439733;32;32950;-80
2023/11/14 00:11:42;;;;;;;0.93;0.93;;;;;;;11.72;67.26;99285.06;4418496;32;33955;-80
2023/11/14 00:14:10;;;;;;;0.80;0.80;;;;;;;11.84;67.17;99275.66;4426968;32;35277;-80
2023/11/14 00:16:40;;;;;;;0.98;0.98;;;;;;;12.25;65.81;99275.06;4426919;32;32762;-80
2023/11/14 00:19:08;;;;;;;0.65;0.65;;;;;;;12.28;65.35;99272.19;4439465;32;33314;-80
2023/11/14 00:21:36;;;;;;;0.88;0.88;;;;;;;11.80;66.99;99276.72;4427608;32;32942;-80
2023/11/14 00:24:04;;;;;;;1.12;0.77;;;;;;;11.73;67.18;99262.16;4426538;32;33886;-79
2023/11/14 00:26:33;;;;;;;1.48;1.37;;;;;;;11.70;67.43;99268.47;4427326;32;32687;-80
2023/11/14 00:29:00;;;;;;;0.60;0.57;;;;;;;11.78;67.57;99265.38;4426378;32;33398;-80
2023/11/14 00:31:29;;;;;;;0.90;0.85;;;;;;;11.71;67.69;99271.94;4425013;32;33840;-80
2023/11/14 00:33:58;;;;;;;2.85;1.83;;;;;;;11.78;67.44;99260.94;4424847;32;33628;-80
2023/11/14 00:36:26;;;;;;;2.67;1.12;;;;;;;11.70;68.03;99251.75;4439326;32;33219;-80
2023/11/14 00:38:59;;;;;;;0.80;0.80;;;;;;;11.87;67.75;99246.37;4426760;32;33137;-80
2023/11/14 00:41:27;;;;;;;2.30;1.48;;;;;;;12.10;66.36;99239.72;4432348;32;33644;-80
2023/11/14 00:43:55;;;;;;;0.50;0.50;;;;;;;12.00;66.82;99246.50;4438653;32;33742;-79
2023/11/14 00:46:22;;;;;;;2.12;1.95;;;;;;;12.01;67.08;99234.97;4419914;32;33753;-79
2023/11/14 00:48:51;;;;;;;0.47;0.47;;;;;;;11.75;67.36;99233.81;4438906;32;33994;-79
2023/11/14 00:51:19;;;;;;;2.83;1.77;;;;;;;11.89;67.69;99227.75;4425586;32;34235;-79
2023/11/14 00:53:51;;;;;;;0.68;0.65;;;;;;;11.92;67.47;99217.88;4426647;32;32991;-79
2023/11/14 00:56:18;;;;;;;1.48;1.37;;;;;;;12.19;66.67;99217.16;4439825;32;33958;-79
2023/11/14 00:58:46;;;;;;;1.27;1.12;;;;;;;12.53;65.15;99208.03;4439204;32;33450;-79
2023/11/14 01:01:14;;;;;;;4.65;2.17;;;;;;;12.47;65.37;99211.91;4426392;32;33809;-79
2023/11/14 01:03:42;;;;;;;1.05;0.68;;;;;;;12.09;66.66;99232.72;4437814;32;33250;-79
2023/11/14 01:06:10;;;;;;;0.32;0.32;;;;;;;11.94;67.09;99233.63;4426618;32;34068;-79
2023/11/14 01:08:37;;;;;;;0.85;0.85;;;;;;;11.89;67.64;99225.97;4450951;32;33999;-79
2023/11/14 01:11:05;;;;;;;1.02;0.73;;;;;;;11.88;67.67;99234.84;4439122;32;33702;-79
2023/11/14 01:13:34;;;;;;;2.03;1.52;;;;;;;12.09;67.01;99226.59;4426894;32;33910;-79
2023/11/14 01:16:02;;;;;;;1.35;1.23;;;;;;;11.93;67.37;99232.78;4420543;32;93619;-79
2023/11/14 01:18:31;;;;;;;4.18;0.43;;;;;;;11.77;68.55;99230.16;4451894;32;34279;-79
2023/11/14 01:20:59;;;;;;;1.23;1.12;;;;;;;11.83;68.57;99230.78;4424869;32;33875;-79
2023/11/14 01:23:28;;;;;;;4.75;2.25;;;;;;;12.11;67.78;99211.50;4427056;32;33917;-79
2023/11/14 01:25:56;;;;;;;2.62;1.98;;;;;;;12.48;66.11;99197.72;4426416;32;32517;-79
2023/11/14 01:28:24;;;;;;;3.08;0.65;;;;;;;12.35;66.01;99183.53;4425641;32;32724;-78
2023/11/14 01:30:53;;;;;;;1.87;1.60;;;;;;;12.03;67.13;99183.69;4453075;32;34270;-79
2023/11/14 01:33:21;;;;;;;0.70;0.70;;;;;;;12.13;67.44;99201.66;4425616;32;35089;-79
2023/11/14 01:35:49;;;;;;;2.10;0.73;;;;;;;12.14;67.41;99195.41;4453082;32;33988;-79
2023/11/14 01:38:16;;;;;;;1.95;1.35;;;;;;;11.91;68.12;99208.19;4438837;32;33330;-79
2023/11/14 01:40:51;;;;;;;0.47;0.47;;;;;;;11.87;68.56;99201.41;4438990;32;33450;-79
2023/11/14 01:43:19;;;;;;;0.90;0.90;;;;;;;12.18;67.54;99204.88;4425304;32;33034;-80
2023/11/14 01:45:47;;;;;;;0.90;0.70;;;;;;;11.94;68.29;99192.16;4438700;32;33762;-79
2023/11/14 01:48:15;;;;;;;5.53;1.17;;;;;;;12.38;66.38;99180.69;4426187;32;32739;-79
2023/11/14 01:50:43;;;;;;;1.00;0.93;;;;;;;12.23;67.30;99163.09;4438787;32;33752;-79
2023/11/14 01:53:11;;;;;;;1.48;0.90;;;;;;;12.44;66.40;99171.56;4451882;32;34375;-79
2023/11/14 01:55:40;;;;;;;4.00;1.80;;;;;;;12.09;67.87;99161.28;4438416;32;33790;-79
2023/11/14 01:58:07;;;;;;;0.65;0.65;;;;;;;12.14;67.91;99166.31;4426313;32;33072;-79
2023/11/14 02:00:35;;;;;;;1.80;1.12;;;;;;;12.03;68.54;99164.31;4439201;32;32889;-78
2023/11/14 02:03:04;;;;;;;0.25;0.25;;;;;;;11.89;68.45;99148.41;4451721;32;33934;-80
2023/11/14 02:05:32;;;;;;;0.60;0.60;;;;;;;12.37;67.88;99154.31;4437823;32;34389;-80
2023/11/14 02:08:01;;;;;;;1.17;0.60;;;;;;;12.42;66.67;99158.38;4438823;32;33412;-80
2023/11/14 02:10:29;;;;;;;1.15;0.60;;;;;;;12.08;68.51;99151.66;4438806;32;33874;-79
2023/11/14 02:12:57;;;;;;;2.17;1.58;;;;;;;11.90;69.21;99169.47;4425885;32;33813;-80
2023/11/14 02:15:25;;;;;;;0.77;0.77;;;;;;;12.18;68.67;99165.19;4438696;32;34222;-79
2023/11/14 02:17:53;;;;;;;1.08;1.08;;;;;;;12.28;68.57;99142.50;4438788;32;34047;-81
2023/11/14 02:20:21;;;;;;;3.17;1.75;;;;;;;12.26;68.20;99128.50;4438636;32;34573;-80
2023/11/14 02:22:50;;;;;;;2.12;1.95;;;;;;;12.59;67.35;99130.88;4424340;32;34137;-79
2023/11/14 02:25:18;;;;;;;2.92;2.10;;;;;;;12.38;67.43;99140.97;4425799;32;33067;-80
2023/11/14 02:27:46;;;;;;;1.65;1.55;;;;;;;12.61;67.12;99152.81;4438892;32;34028;-80
2023/11/14 02:30:14;;;;;;;1.23;1.05;;;;;;;12.31;68.18;99142.31;4439152;32;32827;-80
2023/11/14 02:32:42;;;;;;;1.37;1.27;;;;;;;12.23;68.30;99141.94;4437565;32;32970;-79
2023/11/14 02:35:10;;;;;;;0.35;0.35;;;;;;;12.35;68.46;99122.66;4438519;32;34086;-80
2023/11/14 02:37:39;;;;;;;1.83;1.67;;;;;;;12.40;68.30;99120.56;4438606;32;33086;-80
2023/11/14 02:40:08;;;;;;;1.95;1.80;;;;;;;12.62;67.41;99113.91;4426005;32;32716;-80
2023/11/14 02:42:36;;;;;;;0.85;0.77;;;;;;;12.13;68.62;99130.19;4438251;32;33885;-80
2023/11/14 02:45:06;;;;;;;1.37;1.20;;;;;;;11.84;70.40;99147.81;4426005;32;34514;-80
2023/11/14 02:47:35;;;;;;;1.92;1.65;;;;;;;12.00;70.65;99153.91;4438188;32;31968;-80
2023/11/14 02:50:11;;;;;;;0.73;0.73;;;;;;;11.82;70.42;99142.63;4437470;32;34627;-80
2023/11/14 02:52:39;;;;;;;1.37;1.27;;;;;;;12.35;69.05;99138.53;4425821;32;33287;-80
2023/11/14 02:55:08;;;;;;;1.87;1.75;;;;;;;12.47;68.56;99156.31;4428004;32;33721;-80
2023/11/14 02:57:36;;;;;;;2.30;0.65;;;;;;;12.01;69.91;99155.59;4439007;32;34258;-80
2023/11/14 03:00:05;;;;;;;1.30;1.20;;;;;;;12.07;69.79;99141.16;4427634;32;32625;-80
2023/11/14 03:02:32;;;;;;;0.15;0.15;;;;;;;11.90;70.65;99158.88;4427704;32;32661;-80
2023/11/14 03:05:00;;;;;;;0.77;0.77;;;;;;;12.14;69.48;99171.59;4426812;32;33605;-80
2023/11/14 03:07:30;;;;;;;0.62;0.60;;;;;;;12.23;69.63;99173.69;4427719;32;32409;-80
2023/11/14 03:09:57;;;;;;;1.75;0.55;;;;;;;12.07;70.12;99191.44;4439049;32;33882;-80
2023/11/14 03:12:25;;;;;;;1.30;1.20;;;;;;;12.20;69.46;99200.31;4440109;32;35146;-80
2023/11/14 03:14:53;;;;;;;1.17;1.08;;;;;;;12.17;69.99;99176.72;4424436;32;33567;-80
2023/11/14 03:17:21;;;;;;;1.87;1.77;;;;;;;12.43;69.25;99160.06;4427393;32;33387;-80
2023/11/14 03:19:49;;;;;;;11.02;1.80;;;;;;;12.82;67.81;99158.56;4425988;32;32976;-80
2023/11/14 03:22:17;;;;;;;0.43;0.43;;;;;;;12.39;68.66;99171.84;4439231;32;33881;-79
2023/11/14 03:24:45;;;;;;;2.25;1.23;;;;;;;12.17;69.87;99182.00;4439649;32;34148;-79
2023/11/14 03:27:14;;;;;;;3.80;1.50;;;;;;;12.01;70.79;99169.69;4420559;32;33373;-79
2023/11/14 03:29:42;;;;;;;0.65;0.65;;;;;;;12.28;70.00;99137.19;4440002;32;33070;-78
2023/11/14 03:32:09;;;;;;;0.98;0.98;;;;;;;12.30;69.81;99151.22;4426101;32;34193;-78
2023/11/14 03:34:37;;;;;;;1.50;1.40;;;;;;;12.30;69.72;99145.91;4439988;32;32646;-78
2023/11/14 03:37:05;;;;;;;0.60;0.60;;;;;;;12.74;67.49;99129.06;4452622;32;33338;-79
2023/11/14 03:39:33;;;;;;;1.95;0.88;;;;;;;12.24;69.26;99112.69;4440432;32;33983;-79
2023/11/14 03:42:01;;;;;;;2.90;1.58;;;;;;;12.23;69.41;99123.41;4420128;32;34455;-79
2023/11/14 03:44:29;;;;;;;1.70;0.98;;;;;;;12.14;69.59;99118.66;4439567;32;33808;-79
2023/11/14 03:46:57;;;;;;;1.42;0.65;;;;;;;12.22;68.70;99124.34;4427359;32;33662;-79
2023/11/14 03:49:24;;;;;;;2.03;1.77;;;;;;;12.31;68.85;99134.38;4439620;32;34588;-78
2023/11/14 03:51:52;;;;;;;0.75;0.75;;;;;;;12.22;68.58;99143.72;4437881;32;33906;-79
2023/11/14 03:54:20;;;;;;;0.52;0.52;;;;;;;12.27;68.55;99152.22;4439130;32;34169;-79
2023/11/14 03:56:48;;;;;;;1.37;1.12;;;;;;;12.19;68.39;99154.50;4426833;32;32446;-79
2023/11/14 03:59:15;;;;;;;2.03;1.15;;;;;;;12.11;68.17;99159.41;4439020;32;33159;-79
2023/11/14 04:01:43;;;;;;;1.45;1.35;;;;;;;12.25;67.54;99154.13;4440667;32;33256;-79
2023/11/14 04:04:11;;;;;;;1.35;0.70;;;;;;;12.14;68.35;99145.13;4426470;32;33944;-79
2023/11/14 04:06:39;;;;;;;4.35;0.80;;;;;;;12.17;68.28;99164.31;4439110;32;32895;-79
2023/11/14 04:09:07;;;;;;;0.85;0.75;;;;;;;12.60;66.90;99144.97;4452263;32;33380;-79
2023/11/14 04:11:35;;;;;;;0.30;0.20;;;;;;;12.62;66.08;99156.28;4426775;32;34335;-80
2023/11/14 04:14:03;;;;;;;1.75;1.65;;;;;;;12.43;66.99;99160.06;4439602;32;33582;-80
2023/11/14 04:16:31;;;;;;;7.65;1.67;;;;;;;12.30;67.56;99181.19;4453646;32;33459;-80
2023/11/14 04:18:59;;;;;;;3.33;2.22;;;;;;;12.51;67.23;99168.41;4440025;32;33117;-80
2023/11/14 04:21:27;;;;;;;1.77;1.42;;;;;;;12.29;67.79;99175.97;4439914;32;33712;-80
2023/11/14 04:23:55;;;;;;;1.55;1.45;;;;;;;12.29;67.67;99168.00;4439489;32;33705;-80
2023/11/14 04:26:25;;;;;;;1.65;0.93;;;;;;;12.23;67.96;99163.94;4426510;32;33401;-80
2023/11/14 04:28:53;;;;;;;2.53;0.82;;;;;;;12.32;67.97;99153.75;4426439;32;32788;-80
2023/11/14 04:31:21;;;;;;;2.17;1.23;;;;;;;12.26;67.98;99170.87;4426012;32;33913;-80
2023/11/14 04:33:49;;;;;;;0.98;0.98;;;;;;;12.19;68.57;99169.50;4439780;32;33319;-80
2023/11/14 04:36:19;;;;;;;1.37;1.27;;;;;;;12.00;68.68;99186.50;4439468;32;33568;-80
2023/11/14 04:38:48;;;;;;;1.12;0.77;;;;;;;11.97;69.79;99196.44;4439498;32;32217;-79
2023/11/14 04:41:17;;;;;;;0.90;0.90;;;;;;;12.13;68.91;99177.84;4439355;32;33508;-80
2023/11/14 04:43:45;;;;;;;0.60;0.55;;;;;;;12.24;68.93;99162.16;4451459;32;33742;-80
2023/11/14 04:46:13;;;;;;;1.83;1.73;;;;;;;12.53;67.02;99160.34;4453436;32;33832;-80
2023/11/14 04:48:42;;;;;;;4.85;2.95;;;;;;;12.22;68.53;99159.59;4439601;32;34913;-80
2023/11/14 04:51:10;;;;;;;0.68;0.65;;;;;;;11.99;69.98;99184.78;4439545;32;33711;-81
2023/11/14 04:53:38;;;;;;;1.37;1.27;;;;;;;11.87;70.14;99211.09;4439514;32;32847;-80
2023/11/14 04:56:06;;;;;;;2.00;1.85;;;;;;;12.28;69.02;99204.22;4426395;32;33669;-80
2023/11/14 04:58:34;;;;;;;1.20;1.10;;;;;;;12.46;68.08;99199.63;4439870;32;34639;-80
2023/11/14 05:01:03;;;;;;;0.68;0.68;;;;;;;12.33;68.72;99213.69;4439522;32;33699;-80
2023/11/14 05:03:31;;;;;;;0.75;0.75;;;;;;;12.55;68.04;99212.31;4426773;32;32898;-79
2023/11/14 05:05:59;;;;;;;6.10;2.05;;;;;;;12.85;67.06;99218.44;4438937;32;33350;-80
2023/11/14 05:08:27;;;;;;;1.50;1.27;;;;;;;12.69;67.06;99221.19;4426606;32;32843;-80
2023/11/14 05:10:55;;;;;;;2.87;1.27;;;;;;;12.49;68.23;99230.38;4439525;32;35139;-80
2023/11/14 05:13:23;;;;;;;3.25;1.50;;;;;;;12.40;68.97;99228.28;4423212;32;32484;-80
2023/11/14 05:15:51;;;;;;;2.30;0.40;;;;;;;12.44;68.69;99238.59;4439515;32;33314;-80
2023/11/14 05:18:21;;;;;;;0.40;0.40;;;;;;;12.50;68.62;99242.66;4426463;32;32772;-79
2023/11/14 05:20:49;;;;;;;0.80;0.65;;;;;;;12.55;68.50;99240.59;4439375;32;34459;-80
2023/11/14 05:23:17;;;;;;;0.60;0.60;;;;;;;12.57;68.60;99239.53;4426175;32;34629;-80
2023/11/14 05:25:45;;;;;;;0.80;0.77;;;;;;;12.65;68.81;99247.03;4437866;32;35055;-80
2023/11/14 05:28:13;;;;;;;2.12;1.15;;;;;;;12.55;69.15;99243.22;4426312;32;32840;-80
2023/11/14 05:30:40;;;;;;;0.98;0.98;;;;;;;12.73;68.67;99231.53;4453264;32;33873;-81
2023/11/14 05:33:08;;;;;;;1.58;1.48;;;;;;;12.98;68.17;99228.19;4427272;32;32806;-80
2023/11/14 05:35:36;;;;;;;1.52;0.70;;;;;;;12.92;68.27;99233.03;4439122;32;33090;-80
2023/11/14 05:38:03;;;;;;;1.42;1.23;;;;;;;12.84;68.90;99241.44;4439091;32;34003;-80
2023/11/14 05:40:31;;;;;;;1.35;1.25;;;;;;;12.88;68.80;99252.72;4438763;32;32415;-79
2023/11/14 05:43:02;;;;;;;1.55;1.45;;;;;;;12.77;69.45;99258.66;4451838;32;34511;-80
2023/11/14 05:45:31;;;;;;;3.95;0.35;;;;;;;12.80;68.62;99266.41;4426381;32;33304;-80
2023/11/14 05:47:59;;;;;;;1.45;1.25;;;;;;;12.91;69.36;99263.09;4417356;32;32962;-79
2023/11/14 05:50:26;;;;;;;1.23;0.90;;;;;;;12.93;69.49;99259.44;4439207;32;33969;-79
2023/11/14 05:52:54;;;;;;;0.40;0.40;;;;;;;12.95;69.31;99270.75;4427370;32;33557;-80
2023/11/14 05:55:22;;;;;;;2.72;0.52;;;;;;;12.99;69.28;99266.97;4412933;32;33311;-81
2023/11/14 05:57:50;;;;;;;2.40;0.90;;;;;;;13.26;68.34;99263.59;4426489;32;33662;-81
2023/11/14 06:00:18;;;;;;;1.60;0.82;;;;;;;13.25;68.50;99267.22;4439366;32;32592;-80
2023/11/14 06:02:47;;;;;;;0.57;0.57;;;;;;;13.19;68.59;99259.59;4423967;32;33108;-79
2023/11/14 06:05:15;;;;;;;1.20;1.10;;;;;;;13.14;68.96;99272.28;4437248;32;33270;-80
2023/11/14 06:07:43;;;;;;;2.50;1.27;;;;;;;13.11;69.16;99269.84;4435836;32;33540;-80
2023/11/14 06:10:12;;;;;;;1.33;1.23;;;;;;;13.24;68.88;99270.78;4425040;32;33122;-80
2023/11/14 06:12:39;;;;;;;0.37;0.37;;;;;;;13.09;69.15;99269.91;4437989;32;34014;-80
2023/11/14 06:15:08;;;;;;;0.80;0.65;;;;;;;13.12;69.35;99253.81;4437742;32;33605;-80
2023/11/14 06:17:36;;;;;;;2.47;1.05;;;;;;;13.08;69.25;99257.62;4436392;32;34551;-81
2023/11/14 06:20:07;;;;;;;0.43;0.35;;;;;;;13.07;69.48;99264.72;4439096;32;36145;-81
2023/11/14 06:22:35;;;;;;;1.95;1.40;;;;;;;12.96;69.79;99256.59;4425426;32;33189;-81
2023/11/14 06:25:04;;;;;;;0.50;0.50;;;;;;;13.25;69.04;99233.59;4437642;32;34231;-81
2023/11/14 06:27:31;;;;;;;2.22;1.33;;;;;;;13.25;69.14;99246.00;4424726;32;33774;-81
2023/11/14 06:29:59;;;;;;;1.02;0.52;;;;;;;13.29;68.43;99242.19;4435743;32;33490;-81
2023/11/14 06:32:28;;;;;;;0.88;0.68;;;;;;;13.24;69.23;99249.56;4425589;32;33826;-81
2023/11/14 06:34:58;;;;;;;1.25;1.15;;;;;;;13.08;69.83;99229.31;4437233;32;33321;-81
2023/11/14 06:37:26;;;;;;;2.47;1.70;;;;;;;13.11;70.18;99208.87;4437343;32;33247;-83
2023/11/14 06:39:57;;;;;;;1.85;1.27;;;;;;;13.62;68.47;99206.47;4437476;32;32689;-82
2023/11/14 06:42:25;;;;;;;0.40;0.40;;;;;;;13.84;67.79;99212.06;4426438;32;33168;-83
2023/11/14 06:44:53;;;;;;;2.15;1.58;;;;;;;13.53;68.63;99256.53;4442276;32;32195;-83
2023/11/14 06:47:21;;;;;;;1.33;1.23;;;;;;;13.38;69.46;99276.06;4435962;32;33200;-83
2023/11/14 06:49:48;;;;;;;3.50;1.80;;;;;;;13.32;69.91;99284.41;4434865;32;34053;-82
2023/11/14 06:52:16;;;;;;;0.57;0.57;;;;;;;13.35;70.15;99294.84;4426484;32;33192;-82
2023/11/14 06:54:44;;;;;;;1.00;1.00;;;;;;;13.38;70.04;99275.22;4425712;32;33013;-83
2023/11/14 06:57:12;;;;;;;0.62;0.62;;;;;;;13.34;70.50;99263.97;4424536;32;33050;-83
2023/11/14 06:59:39;;;;;;;1.05;0.62;;;;;;;13.63;69.61;99264.75;4438622;32;34318;-83
2023/11/14 07:02:08;;;;;;;1.27;1.27;;;;;;;13.51;70.05;99258.41;4438751;32;33850;-84
2023/11/14 07:04:39;;;;;;;0.40;0.40;;;;;;;13.57;69.96;99271.28;4436914;32;33218;-83
2023/11/14 07:07:19;;;;;;;5.75;1.05;;;;;;;13.66;69.94;99271.66;4440570;32;33622;-83
2023/11/14 07:10:00;;;;;;;2.65;1.12;;;;;;;13.84;69.82;99267.78;4439670;32;33499;-82
2023/11/14 07:12:27;;;;;;;0.55;0.55;;;;;;;14.01;69.35;99266.69;4425782;32;32890;-82
2023/11/14 07:14:56;;;;;;;0.73;0.73;;;;;;;14.15;68.79;99225.94;4437907;32;32732;-82
2023/11/14 07:17:24;;;;;;;1.05;0.98;;;;;;;13.72;69.74;99234.09;4436991;32;33358;-83
2023/11/14 07:19:54;;;;;;;1.20;0.85;;;;;;;13.63;70.73;99235.56;4450470;32;33677;-82
2023/11/14 07:22:21;;;;;;;0.55;0.45;;;;;;;13.71;70.57;99241.22;4437595;32;34240;-83
2023/11/14 07:24:49;;;;;;;0.20;0.20;;;;;;;13.69;70.87;99245.78;4427610;32;32068;-82
2023/11/14 07:27:18;;;;;;;2.75;1.52;;;;;;;13.80;70.50;99245.06;4437901;32;33059;-82
2023/11/14 07:29:46;;;;;;;0.77;0.60;;;;;;;13.79;71.22;99236.25;4437652;32;33628;-82
2023/11/14 07:32:14;;;;;;;1.75;1.62;;;;;;;14.09;70.04;99241.31;4429660;32;33274;-83
2023/11/14 07:34:42;;;;;;;1.23;0.62;;;;;;;14.47;69.15;99248.50;4444172;32;32511;-82
2023/11/14 07:37:10;;;;;;;1.42;1.27;;;;;;;14.28;70.10;99224.16;4435352;32;32650;-82
2023/11/14 07:39:38;;;;;;;0.98;0.90;;;;;;;14.74;69.27;99239.63;4424894;32;32950;-82
2023/11/14 07:42:06;;;;;;;0.47;0.37;;;;;;;14.60;69.32;99254.72;4424053;32;33979;-82
2023/11/14 07:44:33;;;;;;;1.58;0.88;;;;;;;14.60;70.32;99244.09;4425005;32;32697;-83
2023/11/14 07:47:02;;;;;;;0.75;0.68;;;;;;;14.71;69.55;99234.50;4439890;32;34059;-83
2023/11/14 07:49:44;;;;;;;0.10;0.10;;;;;;;14.52;70.64;99253.53;4428754;32;33852;-82
2023/11/14 07:52:12;;;;;;;1.85;1.65;;;;;;;14.50;71.10;99274.91;4438864;32;32900;-83
2023/11/14 07:54:40;;;;;;;1.17;0.95;;;;;;;14.59;70.95;99279.59;4428543;32;33430;-82
2023/11/14 07:57:08;;;;;;;0.40;0.40;;;;;;;15.01;70.51;99268.75;4440227;32;32818;-82
2023/11/14 07:59:36;;;;;;;0.05;0.05;;;;;;;15.03;70.23;99269.47;4426948;32;32978;-82
2023/11/14 08:02:03;;;;;;;0.43;0.30;;;;;;;15.24;69.83;99264.44;4438907;32;34431;-82
2023/11/14 08:04:31;;;;;;;3.10;0.82;;;;;;;15.29;69.58;99272.97;4439832;32;33561;-83
2023/11/14 08:07:01;;;;;;;1.33;0.85;;;;;;;15.22;69.53;99277.84;4424660;32;33101;-83
2023/11/14 08:09:29;;;;;;;0.15;0.15;;;;;;;15.00;69.50;99305.13;4451794;32;33855;-83
2023/11/14 08:11:57;;;;;;;0.93;0.60;;;;;;;15.33;69.26;99320.50;4441148;32;34075;-83
2023/11/14 08:14:26;;;;;;;0.30;0.30;;;;;;;15.32;68.97;99315.28;4437508;32;33473;-83
2023/11/14 08:16:54;;;;;;;0.60;0.55;;;;;;;15.23;69.27;99307.94;4439547;32;33534;-83
2023/11/14 08:19:23;;;;;;;0.77;0.77;;;;;;;15.17;69.30;99311.06;4440031;32;33857;-83
2023/11/14 08:21:50;;;;;;;0.70;0.60;;;;;;;15.20;69.09;99326.81;4426963;32;34690;-83
2023/11/14 08:24:19;;;;;;;5.87;0.70;;;;;;;14.97;69.89;99344.34;4426489;32;33773;-83
2023/11/14 08:26:48;;;;;;;2.20;0.77;;;;;;;15.09;69.45;99347.00;4427389;32;33563;-83
2023/11/14 08:29:16;;;;;;;1.75;1.65;;;;;;;15.18;68.88;99334.03;4440354;32;33929;-83
2023/11/14 08:31:44;;;;;;;1.83;1.02;;;;;;;14.98;69.76;99320.31;4440312;32;34069;-83
2023/11/14 08:34:11;;;;;;;0.20;0.20;;;;;;;14.97;69.94;99309.78;4440075;32;32544;-83
2023/11/14 08:36:39;;;;;;;0.75;0.65;;;;;;;15.22;68.44;99307.09;4423346;32;32747;-83
2023/11/14 08:39:10;;;;;;;0.45;0.43;;;;;;;15.30;68.45;99295.94;4437923;32;33533;-83
2023/11/14 08:41:38;;;;;;;0.20;0.17;;;;;;;15.15;68.15;99308.50;4427807;32;34034;-83
2023/11/14 08:44:07;;;;;;;0.00;0.00;;;;;;;14.99;68.84;99319.34;4427162;32;33494;-83
2023/11/14 08:46:35;;;;;;;0.25;0.25;;;;;;;15.42;67.31;99320.78;4440053;32;33831;-83
2023/11/14 08:49:07;;;;;;;0.20;0.15;;;;;;;15.09;67.82;99328.38;4439649;32;34368;-82
2023/11/14 08:51:35;;;;;;;0.25;0.25;;;;;;;14.90;68.57;99346.56;4440400;32;33713;-83
2023/11/14 08:54:03;;;;;;;0.70;0.70;;;;;;;15.08;68.12;99350.63;4438886;32;32160;-83
2023/11/14 08:56:31;;;;;;;0.90;0.55;;;;;;;14.72;68.74;99346.03;4438878;32;34755;-83
2023/11/14 08:58:58;;;;;;;0.60;0.60;;;;;;;15.16;67.85;99373.19;4426397;32;33770;-83
2023/11/14 09:01:26;;;;;;;0.43;0.10;;;;;;;14.88;68.48;99366.25;4424718;32;32804;-83
2023/11/14 09:03:54;;;;;;;0.03;0.03;;;;;;;14.82;68.54;99381.66;4438376;32;32448;-83
2023/11/14 09:06:24;;;;;;;0.55;0.55;;;;;;;14.85;68.33;99399.19;4439141;32;33466;-83
2023/11/14 09:08:52;;;;;;;0.35;0.35;;;;;;;14.85;68.97;99391.22;4426975;32;34051;-83
2023/11/14 09:11:21;;;;;;;0.10;0.10;;;;;;;15.03;68.04;99395.28;4426374;32;33113;-83
2023/11/14 09:13:55;;;;;;;0.93;0.20;;;;;;;15.26;67.56;99388.38;4426444;32;32655;-83
2023/11/14 09:16:24;;;;;;;0.37;0.37;;;;;;;15.09;67.67;99389.53;4427483;32;33181;-83
2023/11/14 09:18:53;;;;;;;0.05;0.05;;;;;;;15.05;68.01;99397.88;4437980;32;33916;-83
2023/11/14 09:21:22;;;;;;;0.20;0.20;;;;;;;15.08;67.68;99401.13;4426575;32;33336;-83
2023/11/14 09:23:50;;;;;;;0.88;0.47;;;;;;;14.92;68.39;99413.78;4438938;32;32194;-83
2023/11/14 09:26:19;;;;;;;0.95;0.95;;;;;;;14.95;68.20;99423.34;4426430;32;32726;-83
2023/11/14 09:28:47;;;;;;;0.43;0.43;;;;;;;14.99;67.65;99414.22;4439294;32;34248;-83
2023/11/14 09:31:15;;;;;;;4.47;1.05;;;;;;;15.00;67.38;99416.78;4425295;32;33972;-83
2023/11/14 09:33:43;;;;;;;0.30;0.25;;;;;;;15.01;67.32;99430.94;4426233;32;34017;-83
2023/11/14 09:36:11;;;;;;;0.20;0.20;;;;;;;15.12;66.90;99425.72;4437803;32;33125;-84
2023/11/14 09:38:39;;;;;;;0.65;0.40;;;;;;;15.24;66.28;99413.38;4413813;32;34088;-83
2023/11/14 09:41:08;;;;;;;0.00;0.00;;;;;;;15.03;67.24;99421.87;4426498;32;33904;-83
2023/11/14 09:43:36;;;;;;;0.28;0.28;;;;;;;15.06;66.86;99428.81;4426666;32;33622;-83
2023/11/14 09:46:05;;;;;;;0.15;0.15;;;;;;;15.04;66.26;99441.34;4439164;32;34762;-83
2023/11/14 09:48:33;;;;;;;0.25;0.25;;;;;;;14.91;66.79;99436.00;4426461;32;33900;-83
2023/11/14 09:51:02;;;;;;;0.10;0.10;;;;;;;14.84;66.80;99421.41;4451491;32;33997;-83
2023/11/14 09:53:32;;;;;;;0.00;0.00;;;;;;;14.94;67.04;99411.00;4426406;32;32594;-83
2023/11/14 09:56:00;;;;;;;0.20;0.20;;;;;;;15.15;66.19;99384.78;4437258;32;32865;-83
2023/11/14 09:58:28;;;;;;;0.20;0.20;;;;;;;15.09;66.13;99378.06;4438688;32;35284;-83
2023/11/14 10:00:56;;;;;;;0.75;0.50;;;;;;;15.08;66.34;99371.88;4437904;32;34984;-83
2023/11/14 10:03:25;;;;;;;0.03;0.00;;;;;;;15.30;65.70;99373.06;4437608;32;32889;-83
2023/11/14 10:05:53;;;;;;;0.15;0.15;;;;;;;15.23;64.71;99375.28;4437988;32;34276;-83
2023/11/14 10:08:21;;;;;;;0.47;0.47;;;;;;;15.31;64.40;99377.44;4426555;32;33063;-83
2023/11/14 10:11:03;;;;;;;0.22;0.22;;;;;;;15.02;66.04;99385.63;4426128;32;33160;-83
2023/11/14 10:13:31;;;;;;;0.90;0.37;;;;;;;15.27;64.84;99389.22;4418463;32;32958;-83
2023/11/14 10:16:14;;;;;;;2.03;0.20;;;;;;;15.25;65.21;99393.81;4433008;32;32894;-83
2023/11/14 10:18:43;;;;;;;0.22;0.22;;;;;;;15.46;63.84;99392.31;4438323;32;32943;-84
2023/11/14 10:21:29;;;;;;;0.47;0.47;;;;;;;15.50;63.29;99398.28;4426476;32;33165;-83
2023/11/14 10:24:01;;;;;;;0.10;0.10;;;;;;;15.23;63.62;99388.59;4427420;32;34410;-83
2023/11/14 10:26:31;;;;;;;1.45;0.98;;;;;;;15.08;63.60;99397.63;4438753;32;33834;-83
2023/11/14 10:29:02;;;;;;;1.70;0.80;;;;;;;14.88;64.42;99412.28;4438591;32;33877;-83
2023/11/14 10:31:38;;;;;;;1.05;0.75;;;;;;;14.55;65.41;99410.94;4425816;32;33609;-83
2023/11/14 10:34:08;;;;;;;0.22;0.22;;;;;;;14.63;65.44;99398.94;4425749;32;33468;-83
2023/11/14 10:36:46;;;;;;;0.43;0.43;;;;;;;14.95;64.63;99376.34;4439087;32;33511;-83
2023/11/14 10:39:14;;;;;;;0.95;0.90;;;;;;;15.09;64.70;99370.91;4437942;32;33031;-83
2023/11/14 10:41:42;;;;;;;2.15;0.70;;;;;;;14.99;64.85;99364.53;4425878;32;33008;-83
2023/11/14 10:44:12;;;;;;;0.40;0.40;;;;;;;15.19;63.69;99375.59;4425737;32;33632;-82
2023/11/14 10:46:48;;;;;;;1.42;1.00;;;;;;;15.10;63.42;99364.66;4437274;32;33802;-83
2023/11/14 10:49:17;;;;;;;0.03;0.03;;;;;;;15.18;64.04;99361.47;4426561;32;33658;-83
2023/11/14 10:51:47;;;;;;;0.00;0.00;;;;;;;15.04;63.41;99365.06;4438798;32;33797;-83
2023/11/14 10:54:16;;;;;;;0.90;0.45;;;;;;;15.04;62.33;99359.75;4438518;32;32896;-83
2023/11/14 10:56:45;;;;;;;0.55;0.22;;;;;;;14.95;63.27;99372.84;4437484;32;34565;-83
2023/11/14 10:59:24;;;;;;;0.00;0.00;;;;;;;14.70;63.84;99365.69;4439917;32;34055;-83
2023/11/14 11:01:53;;;;;;;0.22;0.22;;;;;;;14.88;63.26;99352.97;4426549;32;33891;-83
2023/11/14 11:04:21;;;;;;;0.50;0.50;;;;;;;14.79;63.51;99362.41;4425618;32;32644;-83
2023/11/14 11:06:48;;;;;;;0.73;0.35;;;;;;;14.63;64.38;99359.09;4438132;32;32682;-83
2023/11/14 11:09:18;;;;;;;0.25;0.20;;;;;;;14.90;62.48;99357.19;4437368;32;34729;-83
2023/11/14 11:11:49;;;;;;;5.75;0.43;;;;;;;15.04;60.64;99349.12;4438438;32;32823;-83
2023/11/14 11:14:19;;;;;;;0.08;0.08;;;;;;;15.07;60.80;99353.37;4425504;32;32695;-83
2023/11/14 11:16:49;;;;;;;3.97;0.65;;;;;;;14.67;61.40;99352.59;4439290;32;34264;-83
2023/11/14 11:19:21;;;;;;;0.47;0.47;;;;;;;14.89;60.91;99338.72;4427448;32;34096;-82
2023/11/14 11:22:10;;;;;;;0.30;0.30;;;;;;;15.02;60.62;99331.59;4453496;32;33973;-83
2023/11/14 11:25:17;;;;;;;0.10;0.10;;;;;;;15.10;60.76;99332.75;4440634;32;33537;-83
2023/11/14 11:27:47;;;;;;;1.37;0.13;;;;;;;15.23;60.02;99342.53;4438921;32;33839;-83
2023/11/14 11:30:15;;;;;;;0.68;0.20;;;;;;;15.38;58.76;99346.75;4439965;32;33960;-83
2023/11/14 11:32:45;;;;;;;0.00;0.00;;;;;;;15.31;59.09;99350.81;4439860;32;34200;-83
2023/11/14 11:35:16;;;;;;;0.10;0.08;;;;;;;15.20;60.23;99354.25;4438261;32;32755;-83
2023/11/14 11:37:48;;;;;;;0.10;0.10;;;;;;;15.39;58.45;99350.31;4439695;32;33911;-83
2023/11/14 11:40:25;;;;;;;0.20;0.20;;;;;;;15.27;58.85;99352.00;4427071;32;34167;-83
2023/11/14 11:42:56;;;;;;;0.10;0.10;;;;;;;14.98;60.52;99344.25;4440373;32;34081;-84